Columbia Gorge Regional the Dalles Municipal Airport
KDLS : now visible

Airfield :











YOU CAN JOIN US ON...

 
LOGIN :

Register | Disclaimer

   EN    FR    IT 

 









Legend :    VFR   Marginal VFR   IFR   Intensive IFR   Very Intensive IFR
Visi :
Ceiling :
>= 8 km
>= 3000ft
5 to 8 km
1000 to 3000 ft
1500m to 5 km
500 to 1000 ft
800 to 1500m
200 to 500 ft
< 800m
< 200 ft
Symbols :   Thunderstorms  Fog  Heavy snow  Heavy precipitations  Wind > 20 kt







- Airport Elevation : 247 ft


KDLS - Columbia Gorge Regional the Dalles Municipal

CURRENT METAR :
  • 260253Z AUTO 29009KT 10SM CLR 23/07 A3005 RMK AO2 SLP175 T02330072 53008

EXPIRED METARs :
  • 260153Z AUTO 29015G24KT 10SM CLR 26/07 A3004 RMK AO2 PK WND 29031/0127 SLP170 T02560072
  • 260053Z AUTO 29024G31KT 10SM CLR 27/07 A3003 RMK AO2 PK WND 29031/0052 SLP167 T02720072

TAF KDLS
Valid from the 26 at 00:00 until the 27 at 00:00 UTC


252327Z 2600/2624 31017G27KT P6SM SKC
FM260600 30007KT P6SM SKC
FM261800 05007KT P6SM SKC
No reported NOTAMs for that airfield.



MET'MAP, your aeronautical weather chart ! - Copyright ORBIFLY December 2007 - Disclaimer

ORBIFLY MET'MAP TEAM :

Programming & Development : Alexandra Zaïnal
Concept & Development : Baudouin d'Aumeries
Co-Development & Prog : Marc-Olivier Méhu
Technical & hardware support : Manuel Goepfert

Contact : metmap@orbifly.com




SOURCES & CREDITS :

   NOAA       Earth
Advisory